Rodez-Marcillac Airport

Airport
ICAO code: 
LFCR
IATA Code: 
RDZ
Summary
ICAO Region: 
EUR
Territory: 
Location: 
, Midi-Pyrenees
Serving: 
Rodez
Elevation: 
1910 ft
Coordinates: 
Aerial View: 
44° 24' 28.328" N, 2° 28' 57.619" E
Metar
Observation
LFCR 060600Z AUTO 30019KT 9999 OVC009 03/02 Q1015 TEMPO 2000 -RASN OVC002
Station
Rodez
Date/Time
2021-12-06 06:00:00
Wind direction
300°
Wind speed
19 kts
Lowest cloud amount
overcast
Temperature
3°C
Dew point
2°C
Humidity
93%
QNH
1015 hPa
Weather condition
n/a

Runways

Designator Length Width Surface Rops
13/31 2040 45 ASP No/No
Airport map: 
Aerial View: 

SKYbrary Partners:

Safety knowledge contributed by: